sensor_id;sensor_type;location;lat;lon;timestamp;P1;durP1;ratioP1;P2;durP2;ratioP2
1537;SDS011;12022;52.266;10.522;2023-02-04T05:36:37;5.27;;;5.17;;
1537;SDS011;12022;52.266;10.522;2023-02-04T06:04:07;6.00;;;5.90;;
1537;SDS011;12022;52.266;10.522;2023-02-04T06:07:13;7.07;;;6.97;;
1537;SDS011;12022;52.266;10.522;2023-02-04T06:13:03;10.03;;;9.90;;
1537;SDS011;12022;52.266;10.522;2023-02-04T06:15:39;5.70;;;5.60;;
1537;SDS011;12022;52.266;10.522;2023-02-04T06:18:11;4.83;;;4.80;;
1537;SDS011;12022;52.266;10.522;2023-02-04T06:20:39;7.50;;;7.40;;
1537;SDS011;12022;52.266;10.522;2023-02-04T06:23:06;14.43;;;14.13;;
1537;SDS011;12022;52.266;10.522;2023-02-04T06:25:33;9.93;;;9.80;;
1537;SDS011;12022;52.266;10.522;2023-02-04T06:28:00;10.90;;;10.70;;
1537;SDS011;12022;52.266;10.522;2023-02-04T06:30:26;7.70;;;7.60;;
1537;SDS011;12022;52.266;10.522;2023-02-04T06:32:53;6.50;;;6.40;;
1537;SDS011;12022;52.266;10.522;2023-02-04T06:35:20;17.60;;;17.20;;
1537;SDS011;12022;52.266;10.522;2023-02-04T06:37:47;13.37;;;13.10;;
1537;SDS011;12022;52.266;10.522;2023-02-04T06:40:14;19.90;;;19.50;;
1537;SDS011;12022;52.266;10.522;2023-02-04T06:42:41;13.40;;;13.13;;
1537;SDS011;12022;52.266;10.522;2023-02-04T06:45:08;5.00;;;4.90;;
1537;SDS011;12022;52.266;10.522;2023-02-04T06:47:35;18.20;;;17.80;;
1537;SDS011;12022;52.266;10.522;2023-02-04T06:50:02;10.43;;;10.20;;
1537;SDS011;12022;52.266;10.522;2023-02-04T06:52:29;12.80;;;12.60;;
1537;SDS011;12022;52.266;10.522;2023-02-04T06:54:56;15.77;;;15.47;;
1537;SDS011;12022;52.266;10.522;2023-02-04T06:57:22;15.07;;;14.77;;
1537;SDS011;12022;52.266;10.522;2023-02-04T06:59:49;15.30;;;15.00;;
1537;SDS011;12022;52.266;10.522;2023-02-04T07:02:16;19.27;;;18.87;;
1537;SDS011;12022;52.266;10.522;2023-02-04T07:04:43;6.33;;;6.23;;
1537;SDS011;12022;52.266;10.522;2023-02-04T07:07:12;4.73;;;4.73;;
1537;SDS011;12022;52.266;10.522;2023-02-04T07:09:39;2.80;;;2.80;;
1537;SDS011;12022;52.266;10.522;2023-02-04T07:12:07;15.67;;;15.37;;
1537;SDS011;12022;52.266;10.522;2023-02-04T07:14:34;13.60;;;13.37;;
1537;SDS011;12022;52.266;10.522;2023-02-04T07:17:01;12.50;;;12.30;;
1537;SDS011;12022;52.266;10.522;2023-02-04T07:19:28;10.33;;;10.13;;
1537;SDS011;12022;52.266;10.522;2023-02-04T07:21:55;11.70;;;11.50;;
1537;SDS011;12022;52.266;10.522;2023-02-04T07:24:22;21.20;;;20.80;;
1537;SDS011;12022;52.266;10.522;2023-02-04T07:26:50;6.27;;;6.17;;
1537;SDS011;12022;52.266;10.522;2023-02-04T07:29:17;15.70;;;15.40;;
1537;SDS011;12022;52.266;10.522;2023-02-04T07:31:50;11.67;;;11.47;;
1537;SDS011;12022;52.266;10.522;2023-02-04T07:34:18;14.50;;;14.20;;
1537;SDS011;12022;52.266;10.522;2023-02-04T07:36:45;12.30;;;12.10;;
1537;SDS011;12022;52.266;10.522;2023-02-04T07:39:12;4.20;;;4.20;;
1537;SDS011;12022;52.266;10.522;2023-02-04T07:41:39;2.73;;;2.73;;
1537;SDS011;12022;52.266;10.522;2023-02-04T07:44:06;10.10;;;9.90;;
1537;SDS011;12022;52.266;10.522;2023-02-04T07:46:33;5.73;;;5.63;;
1537;SDS011;12022;52.266;10.522;2023-02-04T07:49:00;10.13;;;9.93;;
1537;SDS011;12022;52.266;10.522;2023-02-04T07:51:27;5.70;;;5.60;;
1537;SDS011;12022;52.266;10.522;2023-02-04T07:53:54;5.87;;;5.77;;
1537;SDS011;12022;52.266;10.522;2023-02-04T07:56:22;5.20;;;5.10;;
1537;SDS011;12022;52.266;10.522;2023-02-04T07:58:51;4.30;;;4.30;;
1537;SDS011;12022;52.266;10.522;2023-02-04T08:01:18;3.13;;;3.13;;
1537;SDS011;12022;52.266;10.522;2023-02-04T08:03:45;4.00;;;4.00;;
1537;SDS011;12022;52.266;10.522;2023-02-04T08:06:12;3.47;;;3.47;;
1537;SDS011;12022;52.266;10.522;2023-02-04T08:08:39;3.90;;;3.90;;
1537;SDS011;12022;52.266;10.522;2023-02-04T08:11:06;4.33;;;4.33;;
1537;SDS011;12022;52.266;10.522;2023-02-04T08:13:33;6.07;;;5.97;;
1537;SDS011;12022;52.266;10.522;2023-02-04T08:16:00;3.20;;;3.20;;
1537;SDS011;12022;52.266;10.522;2023-02-04T08:18:27;4.37;;;4.37;;
1537;SDS011;12022;52.266;10.522;2023-02-04T08:20:54;3.43;;;3.43;;
1537;SDS011;12022;52.266;10.522;2023-02-04T08:23:21;3.27;;;3.27;;
1537;SDS011;12022;52.266;10.522;2023-02-04T08:25:48;2.83;;;2.83;;
1537;SDS011;12022;52.266;10.522;2023-02-04T08:28:15;2.57;;;2.57;;
1537;SDS011;12022;52.266;10.522;2023-02-04T08:30:42;3.33;;;3.33;;
1537;SDS011;12022;52.266;10.522;2023-02-04T08:33:09;2.23;;;2.23;;
1537;SDS011;12022;52.266;10.522;2023-02-04T08:35:36;3.83;;;3.83;;
1537;SDS011;12022;52.266;10.522;2023-02-04T08:38:03;2.80;;;2.80;;
1537;SDS011;12022;52.266;10.522;2023-02-04T08:40:30;3.60;;;3.60;;
1537;SDS011;12022;52.266;10.522;2023-02-04T08:42:57;4.17;;;4.17;;
1537;SDS011;12022;52.266;10.522;2023-02-04T08:45:24;3.97;;;3.97;;
1537;SDS011;12022;52.266;10.522;2023-02-04T08:47:51;3.60;;;3.60;;
1537;SDS011;12022;52.266;10.522;2023-02-04T08:50:18;3.67;;;3.67;;
1537;SDS011;12022;52.266;10.522;2023-02-04T08:52:45;2.80;;;2.80;;
1537;SDS011;12022;52.266;10.522;2023-02-04T08:55:12;3.00;;;3.00;;
1537;SDS011;12022;52.266;10.522;2023-02-04T08:57:39;5.67;;;5.57;;
1537;SDS011;12022;52.266;10.522;2023-02-04T09:00:06;2.90;;;2.90;;
1537;SDS011;12022;52.266;10.522;2023-02-04T09:02:34;2.97;;;2.97;;
1537;SDS011;12022;52.266;10.522;2023-02-04T09:05:01;4.50;;;4.50;;
1537;SDS011;12022;52.266;10.522;2023-02-04T09:07:27;2.83;;;2.83;;
1537;SDS011;12022;52.266;10.522;2023-02-04T09:09:54;3.37;;;3.37;;
1537;SDS011;12022;52.266;10.522;2023-02-04T09:12:21;3.73;;;3.73;;
1537;SDS011;12022;52.266;10.522;2023-02-04T09:14:48;5.93;;;5.73;;
1537;SDS011;12022;52.266;10.522;2023-02-04T09:17:15;3.20;;;3.20;;
1537;SDS011;12022;52.266;10.522;2023-02-04T09:19:42;3.70;;;3.70;;
1537;SDS011;12022;52.266;10.522;2023-02-04T09:22:09;4.13;;;4.13;;
1537;SDS011;12022;52.266;10.522;2023-02-04T09:24:38;3.60;;;3.60;;
1537;SDS011;12022;52.266;10.522;2023-02-04T09:27:05;4.07;;;4.07;;
1537;SDS011;12022;52.266;10.522;2023-02-04T09:29:32;3.97;;;3.97;;
1537;SDS011;12022;52.266;10.522;2023-02-04T09:31:59;3.20;;;3.20;;
1537;SDS011;12022;52.266;10.522;2023-02-04T09:34:29;3.50;;;3.50;;
1537;SDS011;12022;52.266;10.522;2023-02-04T09:36:56;3.20;;;3.20;;
1537;SDS011;12022;52.266;10.522;2023-02-04T09:39:23;2.90;;;2.90;;
1537;SDS011;12022;52.266;10.522;2023-02-04T09:41:50;4.83;;;4.83;;
1537;SDS011;12022;52.266;10.522;2023-02-04T09:44:20;4.27;;;4.27;;
1537;SDS011;12022;52.266;10.522;2023-02-04T09:46:51;3.60;;;3.60;;
1537;SDS011;12022;52.266;10.522;2023-02-04T09:49:21;3.07;;;3.07;;
1537;SDS011;12022;52.266;10.522;2023-02-04T09:51:48;3.73;;;3.73;;
1537;SDS011;12022;52.266;10.522;2023-02-04T09:54:20;4.03;;;4.03;;
1537;SDS011;12022;52.266;10.522;2023-02-04T09:56:48;4.40;;;4.40;;
1537;SDS011;12022;52.266;10.522;2023-02-04T09:59:17;4.80;;;4.80;;
1537;SDS011;12022;52.266;10.522;2023-02-04T10:01:47;4.43;;;4.43;;
1537;SDS011;12022;52.266;10.522;2023-02-04T10:04:20;4.33;;;4.33;;
1537;SDS011;12022;52.266;10.522;2023-02-04T10:06:48;4.20;;;4.20;;
1537;SDS011;12022;52.266;10.522;2023-02-04T10:09:15;3.27;;;3.27;;
1537;SDS011;12022;52.266;10.522;2023-02-04T10:11:43;3.47;;;3.47;;
1537;SDS011;12022;52.266;10.522;2023-02-04T10:14:14;2.93;;;2.93;;
1537;SDS011;12022;52.266;10.522;2023-02-04T10:16:46;2.47;;;2.47;;
1537;SDS011;12022;52.266;10.522;2023-02-04T10:19:23;2.90;;;2.90;;
1537;SDS011;12022;52.266;10.522;2023-02-04T10:21:52;6.47;;;6.37;;
1537;SDS011;12022;52.266;10.522;2023-02-04T10:24:20;4.67;;;4.67;;
1537;SDS011;12022;52.266;10.522;2023-02-04T10:26:51;4.20;;;4.20;;
1537;SDS011;12022;52.266;10.522;2023-02-04T10:29:20;3.53;;;3.53;;
1537;SDS011;12022;52.266;10.522;2023-02-04T10:31:51;3.97;;;3.97;;
1537;SDS011;12022;52.266;10.522;2023-02-04T10:34:19;10.83;;;10.63;;
1537;SDS011;12022;52.266;10.522;2023-02-04T10:36:49;6.27;;;6.17;;
1537;SDS011;12022;52.266;10.522;2023-02-04T10:39:18;5.03;;;4.93;;
1537;SDS011;12022;52.266;10.522;2023-02-04T10:41:48;4.73;;;4.73;;
1537;SDS011;12022;52.266;10.522;2023-02-04T10:44:30;4.00;;;4.00;;
1537;SDS011;12022;52.266;10.522;2023-02-04T10:46:59;4.33;;;4.33;;
1537;SDS011;12022;52.266;10.522;2023-02-04T10:49:40;3.70;;;3.70;;
1537;SDS011;12022;52.266;10.522;2023-02-04T10:52:16;3.37;;;3.37;;
1537;SDS011;12022;52.266;10.522;2023-02-04T10:54:45;2.77;;;2.77;;
1537;SDS011;12022;52.266;10.522;2023-02-04T10:57:20;3.60;;;3.60;;
1537;SDS011;12022;52.266;10.522;2023-02-04T10:59:50;3.60;;;3.60;;
1537;SDS011;12022;52.266;10.522;2023-02-04T11:05:10;4.60;;;4.60;;
1537;SDS011;12022;52.266;10.522;2023-02-04T11:07:39;3.00;;;3.00;;
1537;SDS011;12022;52.266;10.522;2023-02-04T11:10:09;7.40;;;7.30;;
1537;SDS011;12022;52.266;10.522;2023-02-04T11:12:43;2.10;;;2.10;;
1537;SDS011;12022;52.266;10.522;2023-02-04T11:18:52;4.00;;;4.00;;
1537;SDS011;12022;52.266;10.522;2023-02-04T11:21:23;2.30;;;2.30;;
1537;SDS011;12022;52.266;10.522;2023-02-04T11:26:43;2.77;;;2.77;;
1537;SDS011;12022;52.266;10.522;2023-02-04T11:39:35;2.10;;;2.10;;
1537;SDS011;12022;52.266;10.522;2023-02-04T11:42:04;2.70;;;2.70;;
1537;SDS011;12022;52.266;10.522;2023-02-04T11:44:39;2.00;;;2.00;;
1537;SDS011;12022;52.266;10.522;2023-02-04T11:47:07;2.60;;;2.60;;
1537;SDS011;12022;52.266;10.522;2023-02-04T11:49:34;3.40;;;3.40;;
1537;SDS011;12022;52.266;10.522;2023-02-04T11:52:05;3.13;;;3.13;;
1537;SDS011;12022;52.266;10.522;2023-02-04T11:54:38;2.23;;;2.23;;
1537;SDS011;12022;52.266;10.522;2023-02-04T11:57:05;4.10;;;4.10;;
1537;SDS011;12022;52.266;10.522;2023-02-04T11:59:32;4.87;;;4.87;;
1537;SDS011;12022;52.266;10.522;2023-02-04T12:02:15;4.40;;;4.40;;
1537;SDS011;12022;52.266;10.522;2023-02-04T12:04:51;3.37;;;3.37;;
1537;SDS011;12022;52.266;10.522;2023-02-04T12:07:28;4.77;;;4.77;;
1537;SDS011;12022;52.266;10.522;2023-02-04T12:09:56;3.90;;;3.90;;
1537;SDS011;12022;52.266;10.522;2023-02-04T12:12:23;4.80;;;4.80;;
1537;SDS011;12022;52.266;10.522;2023-02-04T12:14:56;5.37;;;5.30;;
1537;SDS011;12022;52.266;10.522;2023-02-04T12:17:27;4.30;;;4.30;;
1537;SDS011;12022;52.266;10.522;2023-02-04T12:49:42;4.57;;;4.57;;
1537;SDS011;12022;52.266;10.522;2023-02-04T13:35:22;6.27;;;6.17;;
1537;SDS011;12022;52.266;10.522;2023-02-04T13:46:33;11.07;;;10.87;;
1537;SDS011;12022;52.266;10.522;2023-02-04T15:08:28;3.80;;;3.80;;
1537;SDS011;12022;52.266;10.522;2023-02-04T15:10:55;4.80;;;4.80;;
1537;SDS011;12022;52.266;10.522;2023-02-04T15:13:22;4.90;;;4.90;;
1537;SDS011;12022;52.266;10.522;2023-02-04T15:15:49;4.37;;;4.37;;
1537;SDS011;12022;52.266;10.522;2023-02-04T15:18:16;5.43;;;5.33;;
1537;SDS011;12022;52.266;10.522;2023-02-04T15:20:43;3.80;;;3.80;;
1537;SDS011;12022;52.266;10.522;2023-02-04T15:23:10;4.57;;;4.57;;
1537;SDS011;12022;52.266;10.522;2023-02-04T15:25:38;4.73;;;4.73;;
1537;SDS011;12022;52.266;10.522;2023-02-04T15:28:05;4.53;;;4.53;;
1537;SDS011;12022;52.266;10.522;2023-02-04T15:30:33;6.03;;;5.93;;
1537;SDS011;12022;52.266;10.522;2023-02-04T15:33:01;6.27;;;6.17;;
1537;SDS011;12022;52.266;10.522;2023-02-04T15:35:27;6.70;;;6.60;;
1537;SDS011;12022;52.266;10.522;2023-02-04T15:37:54;5.00;;;5.00;;
1537;SDS011;12022;52.266;10.522;2023-02-04T15:40:21;4.83;;;4.83;;
1537;SDS011;12022;52.266;10.522;2023-02-04T15:42:48;3.70;;;3.70;;
1537;SDS011;12022;52.266;10.522;2023-02-04T15:45:16;6.40;;;6.30;;
1537;SDS011;12022;52.266;10.522;2023-02-04T15:47:42;5.37;;;5.27;;
1537;SDS011;12022;52.266;10.522;2023-02-04T15:50:09;5.97;;;5.87;;
1537;SDS011;12022;52.266;10.522;2023-02-04T15:52:37;9.50;;;9.40;;
1537;SDS011;12022;52.266;10.522;2023-02-04T15:55:04;4.63;;;4.63;;
1537;SDS011;12022;52.266;10.522;2023-02-04T15:57:31;5.63;;;5.53;;
1537;SDS011;12022;52.266;10.522;2023-02-04T15:59:58;6.37;;;6.27;;
1537;SDS011;12022;52.266;10.522;2023-02-04T16:02:25;5.10;;;5.10;;
1537;SDS011;12022;52.266;10.522;2023-02-04T16:04:52;6.97;;;6.87;;
1537;SDS011;12022;52.266;10.522;2023-02-04T16:07:19;6.80;;;6.70;;
1537;SDS011;12022;52.266;10.522;2023-02-04T16:09:46;6.23;;;6.13;;
1537;SDS011;12022;52.266;10.522;2023-02-04T16:12:13;5.53;;;5.47;;
1537;SDS011;12022;52.266;10.522;2023-02-04T16:14:40;6.60;;;6.50;;
1537;SDS011;12022;52.266;10.522;2023-02-04T16:17:07;6.30;;;6.20;;
1537;SDS011;12022;52.266;10.522;2023-02-04T16:19:34;4.10;;;4.10;;
1537;SDS011;12022;52.266;10.522;2023-02-04T16:22:02;5.90;;;5.80;;
1537;SDS011;12022;52.266;10.522;2023-02-04T16:24:31;5.93;;;5.83;;
1537;SDS011;12022;52.266;10.522;2023-02-04T16:26:58;5.70;;;5.60;;
1537;SDS011;12022;52.266;10.522;2023-02-04T16:29:25;4.43;;;4.43;;
1537;SDS011;12022;52.266;10.522;2023-02-04T16:31:52;6.10;;;6.00;;
1537;SDS011;12022;52.266;10.522;2023-02-04T16:34:19;7.80;;;7.70;;
1537;SDS011;12022;52.266;10.522;2023-02-04T16:36:46;5.57;;;5.47;;
1537;SDS011;12022;52.266;10.522;2023-02-04T16:39:13;4.70;;;4.70;;
1537;SDS011;12022;52.266;10.522;2023-02-04T16:41:40;5.97;;;5.87;;
1537;SDS011;12022;52.266;10.522;2023-02-04T16:44:07;6.17;;;6.07;;
1537;SDS011;12022;52.266;10.522;2023-02-04T16:46:34;5.90;;;5.80;;
1537;SDS011;12022;52.266;10.522;2023-02-04T16:49:01;5.13;;;5.10;;
1537;SDS011;12022;52.266;10.522;2023-02-04T16:51:30;4.33;;;4.33;;
1537;SDS011;12022;52.266;10.522;2023-02-04T16:53:57;3.90;;;3.90;;
1537;SDS011;12022;52.266;10.522;2023-02-04T16:56:24;4.43;;;4.43;;
1537;SDS011;12022;52.266;10.522;2023-02-04T16:58:55;3.57;;;3.57;;
1537;SDS011;12022;52.266;10.522;2023-02-04T17:01:21;3.80;;;3.80;;
1537;SDS011;12022;52.266;10.522;2023-02-04T17:03:48;3.70;;;3.70;;
1537;SDS011;12022;52.266;10.522;2023-02-04T17:06:15;6.00;;;5.90;;
1537;SDS011;12022;52.266;10.522;2023-02-04T17:08:42;4.80;;;4.80;;
1537;SDS011;12022;52.266;10.522;2023-02-04T17:11:09;4.33;;;4.33;;
1537;SDS011;12022;52.266;10.522;2023-02-04T17:13:59;4.53;;;4.53;;
1537;SDS011;12022;52.266;10.522;2023-02-04T17:16:28;3.27;;;3.27;;
1537;SDS011;12022;52.266;10.522;2023-02-04T17:18:56;3.33;;;3.33;;
1537;SDS011;12022;52.266;10.522;2023-02-04T17:21:23;3.47;;;3.47;;
1537;SDS011;12022;52.266;10.522;2023-02-04T17:23:52;3.03;;;3.03;;
1537;SDS011;12022;52.266;10.522;2023-02-04T17:26:21;3.47;;;3.47;;
1537;SDS011;12022;52.266;10.522;2023-02-04T17:28:49;3.83;;;3.83;;
1537;SDS011;12022;52.266;10.522;2023-02-04T17:31:16;4.07;;;4.07;;
1537;SDS011;12022;52.266;10.522;2023-02-04T17:33:43;3.23;;;3.23;;
1537;SDS011;12022;52.266;10.522;2023-02-04T17:36:11;4.00;;;4.00;;
1537;SDS011;12022;52.266;10.522;2023-02-04T17:38:40;2.90;;;2.90;;
1537;SDS011;12022;52.266;10.522;2023-02-04T17:41:07;4.03;;;4.03;;
1537;SDS011;12022;52.266;10.522;2023-02-04T17:43:34;3.93;;;3.93;;
1537;SDS011;12022;52.266;10.522;2023-02-04T17:46:02;4.93;;;4.93;;
1537;SDS011;12022;52.266;10.522;2023-02-04T17:48:29;3.83;;;3.83;;
1537;SDS011;12022;52.266;10.522;2023-02-04T17:50:57;4.90;;;4.90;;
1537;SDS011;12022;52.266;10.522;2023-02-04T17:53:24;3.50;;;3.50;;
1537;SDS011;12022;52.266;10.522;2023-02-04T17:55:51;5.47;;;5.43;;
1537;SDS011;12022;52.266;10.522;2023-02-04T17:58:19;5.03;;;5.03;;
1537;SDS011;12022;52.266;10.522;2023-02-04T18:00:49;3.67;;;3.67;;
1537;SDS011;12022;52.266;10.522;2023-02-04T18:03:18;3.77;;;3.77;;
1537;SDS011;12022;52.266;10.522;2023-02-04T18:05:50;4.03;;;4.03;;
1537;SDS011;12022;52.266;10.522;2023-02-04T18:08:23;5.00;;;5.00;;
1537;SDS011;12022;52.266;10.522;2023-02-04T18:10:53;4.90;;;4.90;;
1537;SDS011;12022;52.266;10.522;2023-02-04T18:13:25;4.53;;;4.47;;
1537;SDS011;12022;52.266;10.522;2023-02-04T18:15:56;2.77;;;2.77;;
1537;SDS011;12022;52.266;10.522;2023-02-04T18:18:26;4.77;;;4.77;;
1537;SDS011;12022;52.266;10.522;2023-02-04T18:20:58;2.77;;;2.77;;
1537;SDS011;12022;52.266;10.522;2023-02-04T18:26:48;3.70;;;3.70;;
1537;SDS011;12022;52.266;10.522;2023-02-04T18:35:00;3.77;;;3.77;;
1537;SDS011;12022;52.266;10.522;2023-02-04T18:42:44;4.67;;;4.67;;
1537;SDS011;12022;52.266;10.522;2023-02-04T18:47:54;3.37;;;3.37;;
1537;SDS011;12022;52.266;10.522;2023-02-04T18:50:32;3.43;;;3.43;;
1537;SDS011;12022;52.266;10.522;2023-02-04T18:53:06;3.53;;;3.53;;
1537;SDS011;12022;52.266;10.522;2023-02-04T18:55:51;4.73;;;4.73;;
1537;SDS011;12022;52.266;10.522;2023-02-04T18:58:24;4.93;;;4.93;;
1537;SDS011;12022;52.266;10.522;2023-02-04T19:01:12;4.00;;;4.00;;
1537;SDS011;12022;52.266;10.522;2023-02-04T19:03:48;3.60;;;3.60;;
1537;SDS011;12022;52.266;10.522;2023-02-04T19:06:31;5.00;;;4.90;;
1537;SDS011;12022;52.266;10.522;2023-02-04T19:11:59;5.00;;;4.90;;
1537;SDS011;12022;52.266;10.522;2023-02-04T19:14:48;5.20;;;5.10;;
1537;SDS011;12022;52.266;10.522;2023-02-04T19:17:25;5.47;;;5.37;;
1537;SDS011;12022;52.266;10.522;2023-02-04T19:20:01;7.07;;;6.97;;
1537;SDS011;12022;52.266;10.522;2023-02-04T19:22:44;3.40;;;3.40;;
1537;SDS011;12022;52.266;10.522;2023-02-04T19:25:35;3.50;;;3.50;;
1537;SDS011;12022;52.266;10.522;2023-02-04T19:30:51;4.10;;;4.10;;
1537;SDS011;12022;52.266;10.522;2023-02-04T19:33:36;2.53;;;2.53;;
1537;SDS011;12022;52.266;10.522;2023-02-04T19:39:00;6.67;;;6.57;;
1537;SDS011;12022;52.266;10.522;2023-02-04T19:41:33;3.60;;;3.60;;
1537;SDS011;12022;52.266;10.522;2023-02-04T19:46:41;3.77;;;3.77;;
1537;SDS011;12022;52.266;10.522;2023-02-04T19:49:15;3.57;;;3.57;;
1537;SDS011;12022;52.266;10.522;2023-02-04T19:51:54;3.10;;;3.10;;
1537;SDS011;12022;52.266;10.522;2023-02-04T19:54:23;5.67;;;5.57;;
1537;SDS011;12022;52.266;10.522;2023-02-04T19:56:59;3.63;;;3.63;;
1537;SDS011;12022;52.266;10.522;2023-02-04T19:59:27;2.83;;;2.83;;
1537;SDS011;12022;52.266;10.522;2023-02-04T20:02:00;4.23;;;4.23;;
1537;SDS011;12022;52.266;10.522;2023-02-04T20:04:47;3.23;;;3.23;;
1537;SDS011;12022;52.266;10.522;2023-02-04T20:07:18;3.30;;;3.30;;
1537;SDS011;12022;52.266;10.522;2023-02-04T20:09:51;2.73;;;2.73;;
1537;SDS011;12022;52.266;10.522;2023-02-04T20:12:52;4.07;;;4.07;;
1537;SDS011;12022;52.266;10.522;2023-02-04T20:15:24;4.60;;;4.60;;
1537;SDS011;12022;52.266;10.522;2023-02-04T20:17:51;5.23;;;5.13;;
1537;SDS011;12022;52.266;10.522;2023-02-04T20:22:59;3.23;;;3.23;;
1537;SDS011;12022;52.266;10.522;2023-02-04T20:25:43;4.20;;;4.20;;
1537;SDS011;12022;52.266;10.522;2023-02-04T20:28:16;13.10;;;12.90;;
1537;SDS011;12022;52.266;10.522;2023-02-04T20:31:20;10.37;;;10.17;;
1537;SDS011;12022;52.266;10.522;2023-02-04T20:33:51;11.40;;;11.20;;
1537;SDS011;12022;52.266;10.522;2023-02-04T20:36:26;7.30;;;7.20;;
1537;SDS011;12022;52.266;10.522;2023-02-04T20:44:58;9.27;;;9.17;;
1537;SDS011;12022;52.266;10.522;2023-02-04T20:47:35;5.77;;;5.67;;
1537;SDS011;12022;52.266;10.522;2023-02-04T20:50:33;8.40;;;8.30;;
1537;SDS011;12022;52.266;10.522;2023-02-04T20:53:05;11.53;;;11.33;;
1537;SDS011;12022;52.266;10.522;2023-02-04T20:55:33;5.93;;;5.83;;
1537;SDS011;12022;52.266;10.522;2023-02-04T21:00:33;7.80;;;7.70;;
1537;SDS011;12022;52.266;10.522;2023-02-04T21:03:12;10.53;;;10.37;;
1537;SDS011;12022;52.266;10.522;2023-02-04T21:05:42;3.83;;;3.83;;
1537;SDS011;12022;52.266;10.522;2023-02-04T21:10:52;6.10;;;6.00;;
1537;SDS011;12022;52.266;10.522;2023-02-04T21:13:19;5.63;;;5.53;;
1537;SDS011;12022;52.266;10.522;2023-02-04T21:15:48;5.17;;;5.10;;
1537;SDS011;12022;52.266;10.522;2023-02-04T21:18:15;4.13;;;4.13;;
1537;SDS011;12022;52.266;10.522;2023-02-04T21:20:42;3.60;;;3.60;;
1537;SDS011;12022;52.266;10.522;2023-02-04T21:23:09;4.13;;;4.13;;
1537;SDS011;12022;52.266;10.522;2023-02-04T21:25:36;3.47;;;3.47;;
1537;SDS011;12022;52.266;10.522;2023-02-04T21:28:03;4.70;;;4.70;;
1537;SDS011;12022;52.266;10.522;2023-02-04T21:30:31;5.10;;;5.10;;
1537;SDS011;12022;52.266;10.522;2023-02-04T21:32:58;3.97;;;3.97;;
1537;SDS011;12022;52.266;10.522;2023-02-04T21:35:26;3.63;;;3.63;;
1537;SDS011;12022;52.266;10.522;2023-02-04T21:37:54;3.53;;;3.53;;
1537;SDS011;12022;52.266;10.522;2023-02-04T21:40:25;3.60;;;3.60;;
1537;SDS011;12022;52.266;10.522;2023-02-04T21:42:52;3.40;;;3.40;;
1537;SDS011;12022;52.266;10.522;2023-02-04T21:45:20;2.87;;;2.87;;
1537;SDS011;12022;52.266;10.522;2023-02-04T21:47:49;1.93;;;1.93;;
1537;SDS011;12022;52.266;10.522;2023-02-04T21:50:18;3.57;;;3.57;;
1537;SDS011;12022;52.266;10.522;2023-02-04T21:52:46;4.70;;;4.70;;
1537;SDS011;12022;52.266;10.522;2023-02-04T21:55:14;6.30;;;6.20;;
1537;SDS011;12022;52.266;10.522;2023-02-04T21:57:48;4.50;;;4.50;;
1537;SDS011;12022;52.266;10.522;2023-02-04T22:00:19;3.87;;;3.87;;
1537;SDS011;12022;52.266;10.522;2023-02-04T22:02:49;4.60;;;4.60;;
1537;SDS011;12022;52.266;10.522;2023-02-04T22:05:18;4.30;;;4.30;;
1537;SDS011;12022;52.266;10.522;2023-02-04T22:07:47;2.80;;;2.80;;
1537;SDS011;12022;52.266;10.522;2023-02-04T22:10:22;2.50;;;2.50;;
1537;SDS011;12022;52.266;10.522;2023-02-04T22:12:50;3.23;;;3.23;;
1537;SDS011;12022;52.266;10.522;2023-02-04T22:15:17;3.80;;;3.80;;
1537;SDS011;12022;52.266;10.522;2023-02-04T22:17:50;8.13;;;8.03;;
1537;SDS011;12022;52.266;10.522;2023-02-04T22:20:18;5.43;;;5.33;;
1537;SDS011;12022;52.266;10.522;2023-02-04T22:22:48;4.13;;;4.13;;
1537;SDS011;12022;52.266;10.522;2023-02-04T22:25:16;3.87;;;3.87;;
1537;SDS011;12022;52.266;10.522;2023-02-04T22:27:44;7.60;;;7.50;;
1537;SDS011;12022;52.266;10.522;2023-02-04T22:30:12;5.33;;;5.23;;
1537;SDS011;12022;52.266;10.522;2023-02-04T22:32:40;12.50;;;12.30;;
1537;SDS011;12022;52.266;10.522;2023-02-04T22:35:08;12.37;;;12.17;;
1537;SDS011;12022;52.266;10.522;2023-02-04T22:37:39;7.97;;;7.87;;
1537;SDS011;12022;52.266;10.522;2023-02-04T22:40:08;12.03;;;11.83;;
1537;SDS011;12022;52.266;10.522;2023-02-04T22:42:36;9.80;;;9.70;;
1537;SDS011;12022;52.266;10.522;2023-02-04T22:45:04;5.00;;;5.00;;
1537;SDS011;12022;52.266;10.522;2023-02-04T22:47:31;9.07;;;8.97;;
1537;SDS011;12022;52.266;10.522;2023-02-04T22:49:58;7.80;;;7.70;;
1537;SDS011;12022;52.266;10.522;2023-02-04T22:52:25;10.23;;;10.10;;
1537;SDS011;12022;52.266;10.522;2023-02-04T22:54:52;5.70;;;5.60;;
1537;SDS011;12022;52.266;10.522;2023-02-04T22:57:19;3.17;;;3.17;;
1537;SDS011;12022;52.266;10.522;2023-02-04T22:59:47;8.10;;;8.00;;
1537;SDS011;12022;52.266;10.522;2023-02-04T23:02:13;3.70;;;3.70;;
1537;SDS011;12022;52.266;10.522;2023-02-04T23:04:41;2.73;;;2.73;;
1537;SDS011;12022;52.266;10.522;2023-02-04T23:07:10;4.43;;;4.43;;
1537;SDS011;12022;52.266;10.522;2023-02-04T23:09:37;3.20;;;3.20;;
1537;SDS011;12022;52.266;10.522;2023-02-04T23:12:05;4.73;;;4.70;;
1537;SDS011;12022;52.266;10.522;2023-02-04T23:14:42;5.43;;;5.33;;
1537;SDS011;12022;52.266;10.522;2023-02-04T23:17:11;4.20;;;4.20;;
1537;SDS011;12022;52.266;10.522;2023-02-04T23:19:40;4.40;;;4.40;;
1537;SDS011;12022;52.266;10.522;2023-02-04T23:22:07;2.93;;;2.93;;
1537;SDS011;12022;52.266;10.522;2023-02-04T23:24:35;4.90;;;4.90;;
1537;SDS011;12022;52.266;10.522;2023-02-04T23:27:03;3.57;;;3.57;;
1537;SDS011;12022;52.266;10.522;2023-02-04T23:29:30;4.47;;;4.47;;
1537;SDS011;12022;52.266;10.522;2023-02-04T23:31:59;4.17;;;4.17;;
1537;SDS011;12022;52.266;10.522;2023-02-04T23:34:27;4.33;;;4.33;;
1537;SDS011;12022;52.266;10.522;2023-02-04T23:36:54;4.30;;;4.30;;
1537;SDS011;12022;52.266;10.522;2023-02-04T23:39:21;3.93;;;3.93;;
1537;SDS011;12022;52.266;10.522;2023-02-04T23:41:48;4.40;;;4.40;;
1537;SDS011;12022;52.266;10.522;2023-02-04T23:44:15;4.93;;;4.93;;
1537;SDS011;12022;52.266;10.522;2023-02-04T23:46:43;5.67;;;5.57;;
1537;SDS011;12022;52.266;10.522;2023-02-04T23:49:10;4.70;;;4.70;;
1537;SDS011;12022;52.266;10.522;2023-02-04T23:51:37;6.10;;;6.00;;
1537;SDS011;12022;52.266;10.522;2023-02-04T23:54:04;4.87;;;4.87;;
1537;SDS011;12022;52.266;10.522;2023-02-04T23:56:32;3.80;;;3.80;;
1537;SDS011;12022;52.266;10.522;2023-02-04T23:58:59;4.97;;;4.97;;
